Time;durP1;ratioP1;P1;durP2;ratioP2;P2;SDS_P1;SDS_P2;PMS_P1;PMS_P2;Temp;Humidity;BMP_temperature;BMP_pressure;BME280_temperature;BME280_humidity;BME280_pressure;Samples;Min_cycle;Max_cycle;Signal;HPM_P1;HPM_P2
2023/08/11 00:01:04;;;;;;;;;;;;;;;25.23;54.70;101227.25;6253906;23;20307;-78
2023/08/11 00:03:56;;;;;;;;;;;;;;;25.19;55.15;101230.06;6254160;23;20319;-78
2023/08/11 00:06:48;;;;;;;;;;;;;;;25.14;55.37;101236.06;6233019;23;20342;-77
2023/08/11 00:09:40;;;;;;;;;;;;;;;25.22;54.87;101239.59;6254760;23;20242;-76
2023/08/11 00:12:32;;;;;;;;;;;;;;;25.20;55.44;101228.84;6232988;23;19907;-78
2023/08/11 00:15:22;;;;;;;;;;;;;;;25.07;55.80;101227.72;6254816;23;19907;-78
2023/08/11 00:18:14;;;;;;;;;;;;;;;25.13;55.53;101226.09;6254543;23;20455;-77
2023/08/11 00:21:03;;;;;;;;;;;;;;;25.12;55.31;101225.31;6232661;23;19908;-77
2023/08/11 00:23:52;;;;;;;;;;;;;;;25.06;55.74;101231.69;6253664;23;20331;-77
2023/08/11 00:26:44;;;;;;;;;;;;;;;25.06;55.91;101232.47;6254487;23;19911;-78
2023/08/11 00:29:36;;;;;;;;;;;;;;;25.01;55.88;101234.88;6254377;23;19908;-77
2023/08/11 00:32:28;;;;;;;;;;;;;;;25.04;55.60;101234.09;6255121;23;19911;-77
2023/08/11 00:35:20;;;;;;;;;;;;;;;25.09;55.59;101230.91;6254836;23;19907;-77
2023/08/11 00:38:13;;;;;;;;;;;;;;;25.07;55.73;101227.72;6256523;23;19907;-77
2023/08/11 00:41:05;;;;;;;;;;;;;;;25.05;55.46;101230.88;6256968;23;20254;-78
2023/08/11 00:43:56;;;;;;;;;;;;;;;25.10;55.41;101238.03;6256716;23;19907;-77
2023/08/11 00:46:48;;;;;;;;;;;;;;;24.99;55.89;101240.84;6234762;23;20282;-76
2023/08/11 00:49:40;;;;;;;;;;;;;;;25.03;56.02;101227.72;6255184;23;19935;-77
2023/08/11 00:52:32;;;;;;;;;;;;;;;25.02;56.15;101236.47;6255556;23;19907;-77
2023/08/11 00:55:25;;;;;;;;;;;;;;;25.05;55.46;101227.31;6234755;23;19907;-77
2023/08/11 00:58:17;;;;;;;;;;;;;;;25.10;55.55;101232.47;6233832;23;20243;-78
2023/08/11 01:01:09;;;;;;;;;;;;;;;25.10;55.24;101229.69;6234629;23;19907;-78
2023/08/11 01:04:01;;;;;;;;;;;;;;;25.09;55.24;101233.69;6234883;23;19908;-77
2023/08/11 01:07:03;;;;;;;;;;;;;;;25.09;55.09;101230.91;6256753;23;19911;-77
2023/08/11 01:09:56;;;;;;;;;;;;;;;25.09;55.01;101233.69;6233600;23;19908;-77
2023/08/11 01:12:56;;;;;;;;;;;;;;;25.06;55.26;101226.13;6255354;23;19907;-77
2023/08/11 01:15:48;;;;;;;;;;;;;;;25.02;55.61;101223.34;6255434;23;19911;-77
2023/08/11 01:18:41;;;;;;;;;;;;;;;24.89;56.20;101226.97;6234134;23;19907;-78
2023/08/11 01:21:33;;;;;;;;;;;;;;;24.89;56.17;101229.75;6256448;23;19907;-78
2023/08/11 01:24:25;;;;;;;;;;;;;;;24.97;55.92;101228.53;6256508;23;19907;-76
2023/08/11 01:27:17;;;;;;;;;;;;;;;24.99;55.78;101228.94;6233884;23;19911;-77
2023/08/11 01:30:09;;;;;;;;;;;;;;;24.91;56.33;101230.91;6256211;23;20250;-77
2023/08/11 01:33:01;;;;;;;;;;;;;;;24.91;56.22;101230.13;6256763;23;20246;-77
2023/08/11 01:35:54;;;;;;;;;;;;;;;24.86;56.45;101234.06;6256421;23;19908;-78
2023/08/11 01:38:46;;;;;;;;;;;;;;;24.81;56.32;101231.69;6234022;23;19907;-77
2023/08/11 01:41:39;;;;;;;;;;;;;;;24.71;56.62;101238.88;6233611;23;19911;-77
2023/08/11 01:44:32;;;;;;;;;;;;;;;24.73;56.55;101234.91;6255155;23;19911;-77
2023/08/11 01:47:21;;;;;;;;;;;;;;;24.73;56.65;101234.91;6233333;23;19911;-77
2023/08/11 01:50:14;;;;;;;;;;;;;;;24.68;56.77;101223.00;6233199;23;19907;-77
2023/08/11 01:53:06;;;;;;;;;;;;;;;24.81;56.48;101236.47;6233507;23;19908;-78
2023/08/11 01:55:54;;;;;;;;;;;;;;;24.83;56.43;101234.09;6256579;23;19911;-78
2023/08/11 01:58:46;;;;;;;;;;;;;;;24.87;56.65;101234.88;6233606;23;19908;-78
2023/08/11 02:01:38;;;;;;;;;;;;;;;24.85;56.70;101238.03;6233798;23;20259;-78
2023/08/11 02:04:30;;;;;;;;;;;;;;;24.82;56.73;101233.28;6233737;23;19907;-78
2023/08/11 02:07:22;;;;;;;;;;;;;;;24.80;56.39;101224.53;6234036;23;19911;-78
2023/08/11 02:10:14;;;;;;;;;;;;;;;24.81;56.64;101236.47;6254887;23;19907;-78
2023/08/11 02:13:07;;;;;;;;;;;;;;;24.78;56.37;101232.50;6234002;23;20315;-78
2023/08/11 02:15:59;;;;;;;;;;;;;;;24.76;56.79;101234.88;6234283;23;19912;-78
2023/08/11 02:18:51;;;;;;;;;;;;;;;24.78;56.65;101237.28;6253608;23;19908;-78
2023/08/11 02:21:43;;;;;;;;;;;;;;;24.79;56.43;101234.06;6233200;23;20276;-77
2023/08/11 02:24:34;;;;;;;;;;;;;;;24.75;56.63;101230.50;6234001;23;20330;-78
2023/08/11 02:27:26;;;;;;;;;;;;;;;24.70;56.60;101231.72;6256094;23;19911;-78
2023/08/11 02:30:18;;;;;;;;;;;;;;;24.69;56.38;101223.75;6254617;23;19911;-78
2023/08/11 02:33:13;;;;;;;;;;;;;;;24.66;56.83;101230.94;6234404;23;19908;-78
2023/08/11 02:36:06;;;;;;;;;;;;;;;24.65;56.82;101234.91;6256075;23;19907;-77
2023/08/11 02:38:53;;;;;;;;;;;;;;;24.70;56.88;101240.06;6232916;23;20270;-77
2023/08/11 02:41:42;;;;;;;;;;;;;;;24.60;57.05;101231.72;6256223;23;19907;-78
2023/08/11 02:44:34;;;;;;;;;;;;;;;24.46;57.72;101246.44;6254409;23;19908;-77
2023/08/11 02:47:26;;;;;;;;;;;;;;;24.35;58.29;101237.28;6233552;23;20394;-78
2023/08/11 02:50:18;;;;;;;;;;;;;;;24.35;58.08;101237.28;6225772;23;19912;-77
2023/08/11 02:53:10;;;;;;;;;;;;;;;24.38;58.32;101230.91;6233247;23;19908;-78
2023/08/11 02:56:06;;;;;;;;;;;;;;;24.35;59.30;101231.72;6255861;23;19907;-78
2023/08/11 02:58:58;;;;;;;;;;;;;;;24.35;58.84;101234.50;6232877;23;19907;-77
2023/08/11 03:01:50;;;;;;;;;;;;;;;24.31;59.47;101236.50;6233560;23;19908;-77
2023/08/11 03:04:40;;;;;;;;;;;;;;;24.41;58.55;101234.91;6233674;23;19907;-78
2023/08/11 03:07:32;;;;;;;;;;;;;;;24.39;58.52;101231.72;6232890;23;19912;-78
2023/08/11 03:10:24;;;;;;;;;;;;;;;24.37;58.95;101228.56;6232754;23;19981;-78
2023/08/11 03:13:13;;;;;;;;;;;;;;;24.33;58.74;101222.97;6233081;23;19907;-78
2023/08/11 03:16:06;;;;;;;;;;;;;;;24.34;59.38;101226.53;6254558;23;19907;-78
2023/08/11 03:18:58;;;;;;;;;;;;;;;24.28;60.08;101234.47;6232574;23;20323;-78
2023/08/11 03:21:50;;;;;;;;;;;;;;;24.35;60.33;101228.94;6255685;23;19907;-78
2023/08/11 03:24:42;;;;;;;;;;;;;;;24.35;60.13;101231.72;6232876;23;19908;-78
2023/08/11 03:27:34;;;;;;;;;;;;;;;24.42;60.22;101225.38;6233916;23;19912;-78
2023/08/11 03:30:26;;;;;;;;;;;;;;;24.42;60.63;101240.06;6255061;23;19907;-79
2023/08/11 03:33:18;;;;;;;;;;;;;;;24.32;60.76;101246.44;6254981;23;19908;-78
2023/08/11 03:36:14;;;;;;;;;;;;;;;24.35;61.04;101251.19;6232371;23;20251;-78
2023/08/11 03:39:06;;;;;;;;;;;;;;;24.35;61.17;101253.16;6253523;23;20247;-78
2023/08/11 03:41:58;;;;;;;;;;;;;;;24.38;61.20;101249.59;6233148;23;19908;-78
2023/08/11 03:44:50;;;;;;;;;;;;;;;24.28;61.54;101245.59;6232282;23;19911;-77
2023/08/11 03:47:44;;;;;;;;;;;;;;;24.28;61.81;101251.16;6233184;23;19912;-77
2023/08/11 03:50:40;;;;;;;;;;;;;;;24.32;61.81;101249.22;6232298;23;19907;-77
2023/08/11 03:53:32;;;;;;;;;;;;;;;24.25;61.79;101260.31;6255119;23;19907;-77
2023/08/11 03:56:25;;;;;;;;;;;;;;;24.27;61.73;101252.38;6211769;23;20247;-77
2023/08/11 03:59:16;;;;;;;;;;;;;;;24.22;62.18;101256.34;6232796;23;19907;-77
2023/08/11 04:02:08;;;;;;;;;;;;;;;24.22;62.07;101255.53;6232401;23;19907;-77
2023/08/11 04:05:01;;;;;;;;;;;;;;;24.28;62.14;101263.06;6232273;23;20322;-77
2023/08/11 04:07:53;;;;;;;;;;;;;;;24.20;62.51;101261.50;6255026;23;19912;-77
2023/08/11 04:10:46;;;;;;;;;;;;;;;24.21;62.38;101270.63;6233495;23;20231;-78
2023/08/11 04:13:38;;;;;;;;;;;;;;;24.26;62.07;101261.91;6235327;23;19907;-77
2023/08/11 04:16:31;;;;;;;;;;;;;;;24.27;62.24;101267.06;6257706;23;19907;-77
2023/08/11 04:19:25;;;;;;;;;;;;;;;24.29;62.05;101269.44;6255425;23;19908;-77
2023/08/11 04:22:17;;;;;;;;;;;;;;;24.25;62.13;101263.88;6234702;23;19907;-77
2023/08/11 04:25:10;;;;;;;;;;;;;;;24.18;62.36;101260.28;6234691;23;19912;-77
2023/08/11 04:28:03;;;;;;;;;;;;;;;24.21;62.69;101265.88;6234380;23;19907;-77
2023/08/11 04:30:55;;;;;;;;;;;;;;;24.33;61.91;101272.25;6234277;23;19908;-77
2023/08/11 04:33:47;;;;;;;;;;;;;;;24.28;61.62;101276.19;6233695;23;19907;-78
2023/08/11 04:36:39;;;;;;;;;;;;;;;24.32;62.10;101273.44;6256093;23;19911;-77
2023/08/11 04:39:31;;;;;;;;;;;;;;;24.32;61.70;101284.53;6234003;23;19907;-77
2023/08/11 04:42:23;;;;;;;;;;;;;;;24.35;61.86;101286.53;6256440;23;19907;-77
2023/08/11 04:45:13;;;;;;;;;;;;;;;24.37;61.21;101279.41;6233402;23;20327;-77
2023/08/11 04:48:05;;;;;;;;;;;;;;;24.38;61.14;101291.31;6212498;23;19907;-76
2023/08/11 04:50:57;;;;;;;;;;;;;;;24.34;61.44;101284.94;6234527;23;19908;-77
2023/08/11 04:53:49;;;;;;;;;;;;;;;24.27;62.22;101289.31;6254778;23;19911;-78
2023/08/11 04:56:41;;;;;;;;;;;;;;;24.30;62.18;101290.50;6232668;23;19911;-77
2023/08/11 04:59:33;;;;;;;;;;;;;;;24.29;62.47;101284.13;6234250;23;19907;-78
2023/08/11 05:02:25;;;;;;;;;;;;;;;24.34;62.57;101290.50;6234646;23;19907;-76
2023/08/11 05:05:18;;;;;;;;;;;;;;;24.33;62.69;101284.13;6256867;23;19907;-77
2023/08/11 05:08:10;;;;;;;;;;;;;;;24.34;62.92;101291.28;6234072;23;19911;-77
2023/08/11 05:11:03;;;;;;;;;;;;;;;24.39;62.79;101287.31;6256614;23;20247;-77
2023/08/11 05:13:55;;;;;;;;;;;;;;;24.36;63.07;101293.69;6255770;23;19908;-76
2023/08/11 05:16:47;;;;;;;;;;;;;;;24.32;62.93;101290.91;6256631;23;19908;-77
2023/08/11 05:19:39;;;;;;;;;;;;;;;24.34;62.48;101296.84;6255844;23;20478;-77
2023/08/11 05:22:28;;;;;;;;;;;;;;;24.36;61.98;101294.47;6233845;23;19907;-77
2023/08/11 05:25:20;;;;;;;;;;;;;;;24.40;61.92;101300.03;6256303;23;19908;-76
2023/08/11 05:28:12;;;;;;;;;;;;;;;24.39;61.82;101309.56;6256436;23;20230;-76
2023/08/11 05:31:04;;;;;;;;;;;;;;;24.44;62.15;101314.72;6256426;23;20231;-76
2023/08/11 05:33:56;;;;;;;;;;;;;;;24.46;62.12;101315.94;6256482;23;19911;-77
2023/08/11 05:36:48;;;;;;;;;;;;;;;24.53;61.62;101321.50;6234087;23;19908;-78
2023/08/11 05:39:43;;;;;;;;;;;;;;;24.61;61.91;101322.31;6233876;23;20331;-78
2023/08/11 05:42:35;;;;;;;;;;;;;;;24.62;61.59;101323.91;6255673;23;19907;-77
2023/08/11 05:45:27;;;;;;;;;;;;;;;24.64;61.13;101332.63;6255912;23;19907;-78
2023/08/11 05:48:18;;;;;;;;;;;;;;;24.62;61.75;101330.28;6256274;23;19907;-78
2023/08/11 05:51:10;;;;;;;;;;;;;;;24.62;60.62;101330.28;6255370;23;19907;-78
2023/08/11 05:54:02;;;;;;;;;;;;;;;24.67;60.86;101332.66;6256417;23;19908;-78
2023/08/11 05:56:54;;;;;;;;;;;;;;;24.72;61.70;101334.25;6255332;23;19908;-77
2023/08/11 05:59:46;;;;;;;;;;;;;;;24.77;61.33;101338.63;6255816;23;20322;-77
2023/08/11 06:02:37;;;;;;;;;;;;;;;24.82;60.94;101327.09;6254809;23;19908;-77
2023/08/11 06:05:27;;;;;;;;;;;;;;;24.88;60.67;101334.69;6254996;23;19911;-79
2023/08/11 06:08:19;;;;;;;;;;;;;;;24.99;59.89;101343.81;6233919;23;19911;-84
2023/08/11 06:11:11;;;;;;;;;;;;;;;25.12;58.84;101333.06;6255277;23;19907;-80
2023/08/11 06:14:03;;;;;;;;;;;;;;;25.18;57.50;101333.47;6234349;23;19907;-79
2023/08/11 06:16:55;;;;;;;;;;;;;;;25.27;57.15;101331.06;6256327;23;19907;-79
2023/08/11 06:19:47;;;;;;;;;;;;;;;25.37;57.16;101342.19;6245888;23;19907;-80
2023/08/11 06:22:39;;;;;;;;;;;;;;;25.40;54.50;101335.00;6256133;23;19911;-79
2023/08/11 06:25:31;;;;;;;;;;;;;;;25.48;54.62;101345.75;6256189;23;19908;-79
2023/08/11 06:28:20;;;;;;;;;;;;;;;25.53;54.58;101345.34;6254362;23;19907;-79
2023/08/11 06:31:12;;;;;;;;;;;;;;;25.59;55.11;101347.75;6255069;23;19907;-78
2023/08/11 06:34:07;;;;;;;;;;;;;;;25.73;54.24;101353.25;6233849;23;19907;-78
2023/08/11 06:36:59;;;;;;;;;;;;;;;25.73;52.57;101350.47;6252636;23;19911;-78
2023/08/11 06:39:51;;;;;;;;;;;;;;;25.74;52.00;101346.50;6254532;23;20254;-79
2023/08/11 06:42:43;;;;;;;;;;;;;;;25.81;52.15;101357.59;6233430;23;19907;-78
2023/08/11 06:45:36;;;;;;;;;;;;;;;25.91;51.52;101365.91;6254702;23;19907;-79
2023/08/11 06:48:27;;;;;;;;;;;;;;;25.95;50.82;101360.34;6232911;23;19907;-79
2023/08/11 06:51:19;;;;;;;;;;;;;;;26.15;49.30;101364.25;6254334;23;19912;-78
2023/08/11 06:54:11;;;;;;;;;;;;;;;26.22;51.09;101358.63;6254338;23;19907;-78
2023/08/11 06:57:03;;;;;;;;;;;;;;;26.18;50.83;101365.41;6254035;23;19911;-78
2023/08/11 06:59:55;;;;;;;;;;;;;;;26.22;51.75;101364.22;6232392;23;19907;-79
2023/08/11 07:02:47;;;;;;;;;;;;;;;26.17;53.11;101367.41;6252748;23;19908;-79
2023/08/11 07:05:39;;;;;;;;;;;;;;;26.13;52.26;101365.84;6254088;23;19907;-79
2023/08/11 07:08:30;;;;;;;;;;;;;;;26.24;50.11;101359.03;6254831;23;19907;-78
2023/08/11 07:11:22;;;;;;;;;;;;;;;26.42;48.91;101363.72;6255518;23;19907;-78
2023/08/11 07:14:14;;;;;;;;;;;;;;;26.58;50.62;101369.59;6255201;23;19907;-78
2023/08/11 07:17:06;;;;;;;;;;;;;;;26.73;49.51;101366.28;6255471;23;19908;-79
2023/08/11 07:19:58;;;;;;;;;;;;;;;26.67;49.18;101367.91;6231444;23;20314;-77
2023/08/11 07:22:50;;;;;;;;;;;;;;;26.79;47.84;101375.81;6233110;23;19911;-78
2023/08/11 07:25:39;;;;;;;;;;;;;;;26.70;50.14;101383.06;6255294;23;19908;-79
2023/08/11 07:28:29;;;;;;;;;;;;;;;26.62;48.38;101381.50;6254653;23;19911;-79
2023/08/11 07:31:21;;;;;;;;;;;;;;;26.96;45.76;101376.13;6232743;23;19908;-78
2023/08/11 07:34:13;;;;;;;;;;;;;;;26.99;43.14;101375.28;6253358;23;20601;-80
2023/08/11 07:37:05;;;;;;;;;;;;;;;27.13;43.89;101384.34;6254000;23;19907;-80
2023/08/11 07:39:58;;;;;;;;;;;;;;;27.08;45.77;101386.78;6253651;23;19907;-80
2023/08/11 07:42:47;;;;;;;;;;;;;;;27.30;45.43;101393.78;6254714;23;19911;-80
2023/08/11 07:45:39;;;;;;;;;;;;;;;27.34;44.63;101390.94;6253727;23;19919;-79
2023/08/11 07:48:31;;;;;;;;;;;;;;;27.06;43.26;101390.00;6232333;23;19912;-78
2023/08/11 07:51:23;;;;;;;;;;;;;;;27.03;44.90;101390.81;6232716;23;19907;-78
2023/08/11 07:54:15;;;;;;;;;;;;;;;27.00;44.92;101385.25;6253940;23;19907;-77
2023/08/11 07:57:08;;;;;;;;;;;;;;;27.12;43.79;101384.78;6255205;23;19907;-79
2023/08/11 08:00:00;;;;;;;;;;;;;;;27.38;43.10;101386.91;6254738;23;19915;-77
2023/08/11 08:02:49;;;;;;;;;;;;;;;27.44;42.47;101390.84;6233109;23;19907;-76
2023/08/11 08:05:41;;;;;;;;;;;;;;;27.50;42.47;101394.00;6231799;23;19911;-75
2023/08/11 08:08:33;;;;;;;;;;;;;;;27.10;44.22;101399.13;6254306;23;19911;-75
2023/08/11 08:11:26;;;;;;;;;;;;;;;27.14;43.41;101394.31;6254912;23;20246;-75
2023/08/11 08:14:15;;;;;;;;;;;;;;;27.43;42.24;101405.25;6231982;23;19907;-76
2023/08/11 08:17:04;;;;;;;;;;;;;;;31.08;36.62;101408.31;6255183;23;19907;-77
2023/08/11 08:19:54;;;;;;;;;;;;;;;36.96;25.11;101419.59;6232510;23;19907;-79
2023/08/11 08:22:43;;;;;;;;;;;;;;;38.80;22.46;101430.41;6232693;23;19907;-77
2023/08/11 08:25:35;;;;;;;;;;;;;;;38.91;22.83;101427.72;6255204;23;20246;-76
2023/08/11 08:28:24;;;;;;;;;;;;;;;42.50;18.88;101436.34;6254985;23;19911;-80
2023/08/11 08:31:16;;;;;;;;;;;;;;;35.53;27.00;101416.91;6255102;23;19912;-79
2023/08/11 08:34:06;;;;;;;;;;;;;;;31.85;31.86;101410.28;6252347;23;19908;-76
2023/08/11 08:37:00;;;;;;;2.30;1.27;;;;;;;30.23;34.63;101410.22;6253732;23;20366;-82
2023/08/11 08:39:58;;;;;;;1.85;0.88;;;;;;;29.88;34.61;101405.31;6232039;23;20023;-80
2023/08/11 08:42:51;;;;;;;7.80;1.45;;;;;;;29.85;36.68;101409.78;6254812;23;20355;-79
2023/08/11 08:45:48;;;;;;;7.45;1.50;;;;;;;29.29;39.39;101414.41;6256151;23;20482;-83
2023/08/11 08:49:06;;;;;;;2.22;1.50;;;;;;;29.91;36.37;101412.91;6237618;23;20027;-81
2023/08/11 08:52:01;;;;;;;9.43;1.50;;;;;;;29.07;39.06;101401.97;6258642;23;20469;-82
2023/08/11 08:54:56;;;;;;;9.70;1.25;;;;;;;28.89;39.75;101410.66;6260120;23;20019;-84
2023/08/11 08:57:50;;;;;;;9.95;1.70;;;;;;;28.89;39.74;101408.66;6260173;23;20630;-83
2023/08/11 09:00:45;;;;;;;4.82;1.33;;;;;;;29.14;38.68;101405.44;6260288;23;20023;-84
2023/08/11 09:03:40;;;;;;;6.40;1.52;;;;;;;28.55;39.76;101412.75;6237487;23;20019;-84
2023/08/11 09:06:32;;;;;;;;;;;;;;;29.13;39.21;101414.28;6260423;23;20019;-81
2023/08/11 09:09:24;;;;;;;6.93;1.77;;;;;;;28.73;39.70;101408.50;6258345;23;19907;-81
2023/08/11 09:12:19;;;;;;;10.80;1.77;;;;;;;28.47;40.27;101398.06;6256204;23;20027;-81
2023/08/11 09:15:13;;;;;;;8.27;1.50;;;;;;;28.61;40.03;101403.44;6236556;23;20019;-83
2023/08/11 09:18:08;;;;;;;3.17;1.20;;;;;;;28.88;38.85;101409.06;6236223;23;20015;-82
2023/08/11 09:21:05;;;;;;;3.00;1.20;;;;;;;28.35;41.24;101398.63;6236134;23;20046;-82
2023/08/11 09:23:59;;;;;;;3.83;1.25;;;;;;;28.61;39.15;101406.25;6256190;23;20038;-80
2023/08/11 09:26:52;;;;;;;7.85;1.35;;;;;;;28.95;39.60;101408.97;6234575;23;20043;-81
2023/08/11 09:29:47;;;;;;;8.50;1.80;;;;;;;29.10;38.75;101409.53;6234371;23;20474;-81
2023/08/11 09:32:42;;;;;;;2.88;1.45;;;;;;;28.59;40.84;101411.50;6235399;23;20026;-81
2023/08/11 09:35:34;;;;;;;;;;;;;;;28.23;41.74;101413.19;6236289;23;20019;-80
2023/08/11 09:38:24;;;;;;;3.00;2.17;;;;;;;28.55;40.28;101407.16;6255519;23;20327;-81
2023/08/11 09:41:19;;;;;;;1.77;0.95;;;;;;;28.45;40.62;101408.88;6256402;23;20019;-80
2023/08/11 09:44:18;;;;;;;2.63;1.20;;;;;;;28.58;39.17;101401.50;6255125;23;20023;-82
2023/08/11 09:47:14;;;;;;;9.60;1.98;;;;;;;28.64;39.45;101408.22;6234566;23;20027;-80
2023/08/11 09:50:06;;;;;;;4.45;1.52;;;;;;;28.41;40.68;101403.31;6255306;23;20474;-80
2023/08/11 09:53:07;;;;;;;3.58;1.08;;;;;;;28.10;41.86;101398.91;6233980;23;20038;-80
2023/08/11 09:56:01;;;;;;;4.80;1.20;;;;;;;27.85;43.03;101392.81;6234816;23;20023;-81
2023/08/11 09:58:57;;;;;;;3.65;1.25;;;;;;;28.37;41.55;101402.59;6233370;23;20023;-80
2023/08/11 10:01:51;;;;;;;4.38;1.45;;;;;;;28.45;41.14;101406.06;6254670;23;20031;-80
2023/08/11 10:04:48;;;;;;;4.13;1.20;;;;;;;28.34;41.55;101399.84;6235286;23;20351;-81
2023/08/11 10:07:44;;;;;;;3.97;1.23;;;;;;;28.44;40.31;101398.91;6254154;23;20039;-81
2023/08/11 10:10:41;;;;;;;4.18;1.65;;;;;;;28.23;41.38;101400.00;6233827;23;20038;-82
2023/08/11 10:13:36;;;;;;;2.05;1.30;;;;;;;28.50;40.10;101400.78;6255567;23;20043;-81
2023/08/11 10:16:30;;;;;;;6.38;1.83;;;;;;;28.37;40.91;101396.19;6254990;23;20027;-81
2023/08/11 10:19:20;;;;;;;;;;;;;;;28.64;39.57;101401.81;6235175;23;20023;-81
2023/08/11 10:22:10;;;;;;;2.72;1.20;;;;;;;28.37;40.57;101399.00;6256247;23;20339;-80
2023/08/11 10:25:06;;;;;;;3.83;1.17;;;;;;;27.91;42.74;101400.34;6256349;23;20078;-81
2023/08/11 10:28:01;;;;;;;6.18;1.33;;;;;;;28.11;42.15;101399.72;6233629;23;20027;-81
2023/08/11 10:31:02;;;;;;;;;;;;;;;28.45;40.74;101400.47;6235379;23;20023;-81
2023/08/11 10:33:58;;;;;;;2.20;0.95;;;;;;;28.31;41.89;101397.88;6257024;23;19908;-81
2023/08/11 10:36:48;;;;;;;1.92;1.15;;;;;;;28.06;42.28;101401.75;6256622;23;20019;-80
2023/08/11 10:39:43;;;;;;;1.30;1.13;;;;;;;28.46;41.91;101397.25;6234067;23;20363;-81
2023/08/11 10:42:40;;;;;;;2.38;1.10;;;;;;;28.62;40.94;101396.63;6234761;23;20023;-81
2023/08/11 10:45:34;;;;;;;6.13;1.42;;;;;;;28.58;41.03;101392.31;6235546;23;20023;-81
2023/08/11 10:48:27;;;;;;;2.60;1.40;;;;;;;28.41;40.85;101394.13;6234985;23;20023;-81
2023/08/11 10:51:36;;;;;;;11.55;1.70;;;;;;;28.74;40.00;101401.69;6234431;23;20027;-81
2023/08/11 10:54:31;;;;;;;6.70;1.40;;;;;;;28.87;39.55;101401.88;6256626;23;20012;-82
2023/08/11 10:57:27;;;;;;;9.52;1.27;;;;;;;28.70;40.81;101388.94;6255540;23;20347;-81
2023/08/11 11:00:19;;;;;;;2.97;1.08;;;;;;;28.69;40.70;101390.94;6256002;23;20019;-81
2023/08/11 11:03:14;;;;;;;4.68;1.27;;;;;;;28.53;41.24;101395.59;6255926;23;20019;-81
2023/08/11 11:06:09;;;;;;;2.53;1.20;;;;;;;28.40;42.10;101384.16;6255658;23;20023;-81
2023/08/11 11:08:58;;;;;;;5.70;1.70;;;;;;;28.41;41.70;101388.53;6254959;23;20023;-82
2023/08/11 11:11:53;;;;;;;2.40;1.27;;;;;;;28.82;40.54;101385.56;6254429;23;20023;-82
2023/08/11 11:14:45;;;;;;;2.43;1.33;;;;;;;28.84;41.06;101378.34;6253737;23;20027;-83
2023/08/11 11:17:39;;;;;;;3.45;1.45;;;;;;;28.63;41.59;101392.63;6232456;23;20015;-80
2023/08/11 11:20:34;;;;;;;2.45;1.20;;;;;;;28.40;41.54;101384.16;6230458;23;20023;-80
2023/08/11 11:23:21;;;;;;;;;;;;;;;29.11;39.63;101378.25;6232796;23;20022;-82
2023/08/11 11:26:15;;;;;;;2.47;1.23;;;;;;;29.07;39.84;101371.16;6253059;23;20302;-82
2023/08/11 11:29:07;;;;;;;3.03;1.27;;;;;;;28.34;41.92;101378.22;6232551;23;20042;-85
2023/08/11 11:32:04;;;;;;;1.77;1.15;;;;;;;28.49;41.58;101379.66;6254498;23;20038;-83
2023/08/11 11:34:54;;;;;;;2.05;1.30;;;;;;;28.23;42.42;101366.41;6236726;23;20027;-83
2023/08/11 11:37:46;;;;;;;3.35;1.38;;;;;;;27.84;43.35;101372.47;6234610;23;20017;-82
2023/08/11 11:40:38;;;;;;;6.93;1.00;;;;;;;27.92;43.32;101367.59;6237086;23;20019;-81
2023/08/11 11:43:32;;;;;;;2.90;1.45;;;;;;;28.21;42.47;101363.25;6236028;23;20665;-81
2023/08/11 11:46:25;;;;;;;2.17;1.25;;;;;;;28.06;42.89;101365.41;6236979;23;20027;-81
2023/08/11 11:49:19;;;;;;;5.75;1.27;;;;;;;28.40;42.17;101365.38;6239821;23;20027;-82
2023/08/11 11:52:09;;;;;;;8.75;1.40;;;;;;;28.95;40.58;101368.97;6238430;23;20019;-82
2023/08/11 11:55:05;;;;;;;19.60;2.28;;;;;;;29.28;40.29;101365.97;6260125;23;20023;-81
2023/08/11 11:58:00;;;;;;;6.90;1.40;;;;;;;29.42;39.33;101364.94;6256584;23;20015;-82
2023/08/11 12:00:53;;;;;;;6.45;1.60;;;;;;;28.74;40.96;101373.69;6255919;23;20023;-82
2023/08/11 12:03:52;;;;;;;3.67;1.80;;;;;;;28.98;40.35;101368.09;6254950;23;20023;-83
2023/08/11 12:06:44;;;;;;;;;;;;;;;28.96;40.83;101362.13;6234545;23;20351;-81
2023/08/11 12:09:53;;;;;;;7.38;1.38;;;;;;;28.75;40.97;101366.09;6257366;23;20318;-82
2023/08/11 12:12:48;;;;;;;8.27;1.38;;;;;;;28.96;40.84;101357.31;6234826;23;20763;-81
2023/08/11 12:15:42;;;;;;;2.20;1.27;;;;;;;29.13;40.45;101355.44;6235248;23;20023;-81
2023/08/11 12:18:37;;;;;;;5.45;1.50;;;;;;;28.31;42.56;101350.31;6233712;23;20019;-82
2023/08/11 12:21:28;;;;;;;10.70;1.45;;;;;;;28.74;41.32;101356.91;6211521;23;20023;-80
2023/08/11 12:24:22;;;;;;;11.45;1.63;;;;;;;28.94;40.85;101350.56;6233252;23;20027;-81
2023/08/11 12:27:17;;;;;;;9.05;1.50;;;;;;;29.37;39.74;101348.63;6230652;23;20023;-80
2023/08/11 12:30:13;;;;;;;2.30;1.27;;;;;;;29.61;39.42;101344.53;6255526;23;20477;-82
2023/08/11 12:33:07;;;;;;;5.85;2.25;;;;;;;29.29;40.19;101342.34;6256134;23;20019;-80
2023/08/11 12:36:02;;;;;;;3.60;1.40;;;;;;;29.68;39.41;101347.22;6235646;23;20023;-82
2023/08/11 12:38:57;;;;;;;4.18;1.40;;;;;;;29.21;40.53;101340.88;6258774;23;20347;-81
2023/08/11 12:41:51;;;;;;;3.75;1.50;;;;;;;29.54;39.22;101332.69;6257379;23;20027;-81
2023/08/11 12:44:46;;;;;;;4.90;1.63;;;;;;;29.63;39.58;101330.88;6235749;23;20023;-80
2023/08/11 12:47:41;;;;;;;1.90;1.30;;;;;;;29.15;40.42;101325.00;6235955;23;20019;-77
2023/08/11 12:50:36;;;;;;;4.15;1.63;;;;;;;28.96;40.91;101331.31;6255560;23;20023;-78
2023/08/11 12:53:30;;;;;;;3.80;1.60;;;;;;;29.41;39.77;101324.13;6234203;23;20023;-82
2023/08/11 12:56:25;;;;;;;8.82;1.33;;;;;;;29.59;39.18;101321.75;6234178;23;20494;-81
2023/08/11 12:59:17;;;;;;;;;;;;;;;29.86;38.88;101320.81;6257681;23;20490;-81
2023/08/11 13:02:11;;;;;;;3.33;1.10;;;;;;;29.51;39.39;101322.34;6257498;23;19907;-82
2023/08/11 13:05:06;;;;;;;2.30;1.20;;;;;;;29.81;38.75;101315.72;6257279;23;20023;-82
2023/08/11 13:08:01;;;;;;;2.72;1.27;;;;;;;29.81;39.27;101327.72;6234452;23;20043;-82
2023/08/11 13:10:55;;;;;;;6.18;2.40;;;;;;;29.96;38.68;101319.84;6233027;23;20366;-82
2023/08/11 13:13:50;;;;;;;6.78;1.30;;;;;;;29.61;39.30;101316.50;6233767;23;20019;-81
2023/08/11 13:16:45;;;;;;;4.35;1.40;;;;;;;28.94;41.05;101314.16;6234257;23;20038;-80
2023/08/11 13:19:36;;;;;;;3.55;1.77;;;;;;;29.17;40.60;101312.13;6232625;23;20019;-82
2023/08/11 13:22:28;;;;;;;2.08;1.10;;;;;;;29.43;39.71;101306.88;6233126;23;20023;-81
2023/08/11 13:25:22;;;;;;;1.83;1.42;;;;;;;30.12;38.78;101315.03;6225032;23;20493;-78
2023/08/11 13:28:17;;;;;;;6.35;1.38;;;;;;;30.26;38.15;101318.75;6234647;23;20019;-81
2023/08/11 13:31:08;;;;;;;9.50;1.40;;;;;;;30.16;38.58;101321.38;6241334;23;20027;-80
2023/08/11 13:34:00;;;;;;;3.70;1.10;;;;;;;29.82;39.29;101322.91;6265491;23;20034;-80
2023/08/11 13:36:54;;;;;;;7.38;1.40;;;;;;;33.55;31.72;101333.63;6236430;23;20721;-79
2023/08/11 13:39:46;;;;;;;4.82;1.65;;;;;;;38.25;25.37;101341.38;6255137;23;20043;-81
2023/08/11 13:42:41;;;;;;;1.58;0.93;;;;;;;39.22;24.08;101335.25;6232814;23;20027;-79
2023/08/11 13:45:31;;;;;;;2.47;1.40;;;;;;;39.40;23.14;101328.50;6234183;23;20355;-80
2023/08/11 13:48:21;;;;;;;6.03;1.33;;;;;;;39.53;23.36;101334.56;6235469;23;20019;-82
2023/08/11 13:51:15;;;;;;;2.38;1.02;;;;;;;39.33;23.70;101324.00;6256409;23;20043;-81
2023/08/11 13:54:09;;;;;;;3.85;1.95;;;;;;;39.67;23.10;101334.47;6255686;23;20019;-80
2023/08/11 13:57:03;;;;;;;8.27;1.17;;;;;;;37.51;24.66;101326.34;6256122;23;20111;-79
2023/08/11 13:59:59;;;;;;;1.43;1.13;;;;;;;35.94;27.61;101319.22;6256273;23;20382;-82
2023/08/11 14:02:53;;;;;;;4.70;1.30;;;;;;;36.38;26.92;101316.69;6256808;23;20039;-83
2023/08/11 14:05:48;;;;;;;5.43;1.42;;;;;;;37.11;25.71;101321.97;6255357;23;20023;-82
2023/08/11 14:08:42;;;;;;;5.05;1.85;;;;;;;35.65;27.73;101307.63;6257491;23;20023;-82
2023/08/11 14:11:37;;;;;;;3.55;2.15;;;;;;;35.51;27.68;101309.03;6254387;23;20042;-78
2023/08/11 14:14:32;;;;;;;7.45;1.70;;;;;;;34.38;29.13;101307.47;6254235;23;20023;-79